Skip Navigation Links
NOAA logo - Click to go to the NOAA homepage
NOAA's National Weather Service
Alaska Aviation Weather Unit
  NWS logo - Click to go to the NWS homepage
Left Navbar Graphic     00 AKDT = 08 GMT

   
NOAA is celebrating 200 years of science, service, and stewardship. Visit the NOAA 200th celebration Web site to learn more.
USA.gov is the U.S. Government's official Web portal to all Federal, state and local government Web resources and services.
Facebook
NWS on Facebook

Important Change Regarding the AAWU Web Presence

 

Over the last several months, the AAWU has been working to navigate its webpages to a nationally supported server. Security, as well as other needs, have necessitated the change.  We have been given an extension for the site changeover while we diligently work at addressing feedback received. As of July 14, 2017, aawu.arh.noaa.gov will be discontinued. The new AAWU web address is weather.gov/aawu. It is now live and will run in-parallel with the old site until it is discontinued on July 14, 2017. Please continue to send any feedback or questions regarding the new webpages to nws.ar.aawu.webauthors@noaa.gov.  Thank you for your patience during this time of transition.
AAWU Home :: Display TAF Add Bookmark
TAF PAAQ 240541Z 2406/2506  07005KT P6SM FEW050 BKN070
     FM242100 14012KT P6SM FEW060 BKN100=

4459
FTAK31 PANC 240541
TAFAGK
TAF

METAR PAAQ 240253Z AUTO 10005KT 10SM CLR 12/06 A2949 RMK AO2 SLP986 T01220056 57012 TSNO $= METAR PAAQ 240353Z AUTO 04009KT 10SM CLR 11/06 A2948 RMK AO2 SLP984 T01060061 TSNO $= METAR PAAQ 240453Z AUTO 07003KT 10SM CLR 11/06 A2947 RMK AO2 SLP982 T01110056 TSNO $= METAR PAAQ 240553Z AUTO 01005KT 10SM CLR 11/06 A2946 RMK AO2 SLP979 T01060061 10128 20100 56008 TSNO $= METAR PAAQ 240653Z AUTO VRB05KT 10SM CLR 11/06 A2946 RMK AO2 SLP977 T01060056 TSNO $= METAR PAAQ 240753Z AUTO 02007KT 10SM CLR 10/06 A2945 RMK AO2 SLP974 T01000061 TSNO $=
 Alaska TAF Map

NOAA's National Weather Service
Alaska Aviation Weather Unit
6930 Sand Lake Road
Anchorage, AK 99502-1845
Disclaimer
Credits
Glossary
Privacy Policy
About Us
Career Opportunities
Contact AAWU Internet Services Site last modified: April, 17th 2012